Cerqueira Cesar, Brazil
Current Conditions -  °F | °C
As of 10:00 AM on Thursday 29 Jan 2015 (Local Time) from SBBU Reporting Station
Broken Clouds Broken Clouds  
Wind Chill: 75°   Ceiling: 1800
Heat Index: 75°   Visibility: 6mi
Dew Point: 73°   Wind: 9mph
Humidity: 94%   Direction: 300°WNW
Pressure: 30.03"   Gusts: NA
Location:  23.05°S, 49.17°W
Report Text: SBBU 291200Z 30008KT 9999 SCT015 BKN018 24/23 Q1017
Loading
Personal Weather Stations






























Interactive Weather Map New forecast layout! Learn more

10-Day Weather Forecast

Advertisements
Track Severe Weather on mobile